Terminal Aerodrome Forecast
Issued by NWS Tuscon, AZ

Home | Current Version | Previous Version | Text Only | Print | Product List | Glossary On
Versions: 1 2 3 4 5 6 7 8 9 10 11 12 13 14 15 16
482
FTUS45 KTWC 261739 CCA
TAFDUG
TAF COR
KDUG 261739Z 2618/2718 24024G32KT P6SM SKC
     FM270400 24011KT P6SM SKC
     FM270700 35006KT P6SM SKC
     FM271400 16007KT P6SM SKC=

USA.gov is the U.S. government's official web portal to all federal, state and local government web resources and services.